sensor_id;sensor_type;location;lat;lon;timestamp;P1;durP1;ratioP1;P2;durP2;ratioP2
17790;SDS011;9019;48.132;-1.210;2022-11-15T00:00:08;7.03;;;2.30;;
17790;SDS011;9019;48.132;-1.210;2022-11-15T00:02:36;5.30;;;2.57;;
17790;SDS011;9019;48.132;-1.210;2022-11-15T00:05:04;8.87;;;2.50;;
17790;SDS011;9019;48.132;-1.210;2022-11-15T00:07:32;10.43;;;2.70;;
17790;SDS011;9019;48.132;-1.210;2022-11-15T00:09:59;8.43;;;2.60;;
17790;SDS011;9019;48.132;-1.210;2022-11-15T00:12:26;4.57;;;2.30;;
17790;SDS011;9019;48.132;-1.210;2022-11-15T00:14:53;7.87;;;2.30;;
17790;SDS011;9019;48.132;-1.210;2022-11-15T00:17:21;6.80;;;2.30;;
17790;SDS011;9019;48.132;-1.210;2022-11-15T00:19:48;7.27;;;2.33;;
17790;SDS011;9019;48.132;-1.210;2022-11-15T00:22:17;6.40;;;2.40;;
17790;SDS011;9019;48.132;-1.210;2022-11-15T00:24:44;6.13;;;2.50;;
17790;SDS011;9019;48.132;-1.210;2022-11-15T00:27:11;7.93;;;2.60;;
17790;SDS011;9019;48.132;-1.210;2022-11-15T00:29:38;9.60;;;2.43;;
17790;SDS011;9019;48.132;-1.210;2022-11-15T00:32:08;7.60;;;2.47;;
17790;SDS011;9019;48.132;-1.210;2022-11-15T00:34:35;5.80;;;2.40;;
17790;SDS011;9019;48.132;-1.210;2022-11-15T00:37:02;5.43;;;2.30;;
17790;SDS011;9019;48.132;-1.210;2022-11-15T00:39:31;11.03;;;3.17;;
17790;SDS011;9019;48.132;-1.210;2022-11-15T00:41:58;5.30;;;2.50;;
17790;SDS011;9019;48.132;-1.210;2022-11-15T00:44:26;4.50;;;2.27;;
17790;SDS011;9019;48.132;-1.210;2022-11-15T00:46:53;9.00;;;2.67;;
17790;SDS011;9019;48.132;-1.210;2022-11-15T00:49:20;9.30;;;3.10;;
17790;SDS011;9019;48.132;-1.210;2022-11-15T00:51:47;7.23;;;2.30;;
17790;SDS011;9019;48.132;-1.210;2022-11-15T00:54:14;12.93;;;2.63;;
17790;SDS011;9019;48.132;-1.210;2022-11-15T00:56:43;9.70;;;2.30;;
17790;SDS011;9019;48.132;-1.210;2022-11-15T00:59:10;6.20;;;2.13;;
17790;SDS011;9019;48.132;-1.210;2022-11-15T01:01:37;7.10;;;2.60;;
17790;SDS011;9019;48.132;-1.210;2022-11-15T01:04:04;10.37;;;2.33;;
17790;SDS011;9019;48.132;-1.210;2022-11-15T01:06:32;11.47;;;2.17;;
17790;SDS011;9019;48.132;-1.210;2022-11-15T01:08:59;6.27;;;1.90;;
17790;SDS011;9019;48.132;-1.210;2022-11-15T01:11:26;7.83;;;2.17;;
17790;SDS011;9019;48.132;-1.210;2022-11-15T01:13:55;7.60;;;1.77;;
17790;SDS011;9019;48.132;-1.210;2022-11-15T01:16:22;7.83;;;2.17;;
17790;SDS011;9019;48.132;-1.210;2022-11-15T01:18:52;7.70;;;2.20;;
17790;SDS011;9019;48.132;-1.210;2022-11-15T01:21:21;9.87;;;2.17;;
17790;SDS011;9019;48.132;-1.210;2022-11-15T01:23:48;8.20;;;2.00;;
17790;SDS011;9019;48.132;-1.210;2022-11-15T01:26:19;8.03;;;2.20;;
17790;SDS011;9019;48.132;-1.210;2022-11-15T01:28:46;11.00;;;2.03;;
17790;SDS011;9019;48.132;-1.210;2022-11-15T01:31:16;7.47;;;2.07;;
17790;SDS011;9019;48.132;-1.210;2022-11-15T01:33:45;5.20;;;1.60;;
17790;SDS011;9019;48.132;-1.210;2022-11-15T01:36:13;8.17;;;1.80;;
17790;SDS011;9019;48.132;-1.210;2022-11-15T01:38:40;7.63;;;1.83;;
17790;SDS011;9019;48.132;-1.210;2022-11-15T01:41:13;7.23;;;1.73;;
17790;SDS011;9019;48.132;-1.210;2022-11-15T01:43:40;7.20;;;1.90;;
17790;SDS011;9019;48.132;-1.210;2022-11-15T01:46:10;7.83;;;2.00;;
17790;SDS011;9019;48.132;-1.210;2022-11-15T01:48:41;6.93;;;2.10;;
17790;SDS011;9019;48.132;-1.210;2022-11-15T01:51:09;7.23;;;1.83;;
17790;SDS011;9019;48.132;-1.210;2022-11-15T01:53:38;8.70;;;1.80;;
17790;SDS011;9019;48.132;-1.210;2022-11-15T01:56:07;4.63;;;1.50;;
17790;SDS011;9019;48.132;-1.210;2022-11-15T01:58:35;6.53;;;1.60;;
17790;SDS011;9019;48.132;-1.210;2022-11-15T02:01:02;6.70;;;1.93;;
17790;SDS011;9019;48.132;-1.210;2022-11-15T02:03:31;10.23;;;1.93;;
17790;SDS011;9019;48.132;-1.210;2022-11-15T02:06:02;7.97;;;1.87;;
17790;SDS011;9019;48.132;-1.210;2022-11-15T02:08:30;3.63;;;1.40;;
17790;SDS011;9019;48.132;-1.210;2022-11-15T02:10:57;8.40;;;1.73;;
17790;SDS011;9019;48.132;-1.210;2022-11-15T02:13:24;6.33;;;1.80;;
17790;SDS011;9019;48.132;-1.210;2022-11-15T02:15:55;8.73;;;1.70;;
17790;SDS011;9019;48.132;-1.210;2022-11-15T02:18:26;10.47;;;2.03;;
17790;SDS011;9019;48.132;-1.210;2022-11-15T02:20:58;6.23;;;1.50;;
17790;SDS011;9019;48.132;-1.210;2022-11-15T02:26:21;8.03;;;1.80;;
17790;SDS011;9019;48.132;-1.210;2022-11-15T02:28:56;6.83;;;1.83;;
17790;SDS011;9019;48.132;-1.210;2022-11-15T02:31:28;7.10;;;1.33;;
17790;SDS011;9019;48.132;-1.210;2022-11-15T02:33:59;8.73;;;1.63;;
17790;SDS011;9019;48.132;-1.210;2022-11-15T02:36:31;4.43;;;1.50;;
17790;SDS011;9019;48.132;-1.210;2022-11-15T02:39:02;6.93;;;1.80;;
17790;SDS011;9019;48.132;-1.210;2022-11-15T02:41:38;6.07;;;1.63;;
17790;SDS011;9019;48.132;-1.210;2022-11-15T02:44:07;9.03;;;1.93;;
17790;SDS011;9019;48.132;-1.210;2022-11-15T02:46:36;5.57;;;1.37;;
17790;SDS011;9019;48.132;-1.210;2022-11-15T02:49:22;6.00;;;1.77;;
17790;SDS011;9019;48.132;-1.210;2022-11-15T02:51:50;6.83;;;1.50;;
17790;SDS011;9019;48.132;-1.210;2022-11-15T02:54:19;6.33;;;1.50;;
17790;SDS011;9019;48.132;-1.210;2022-11-15T02:56:47;8.97;;;1.50;;
17790;SDS011;9019;48.132;-1.210;2022-11-15T02:59:24;13.80;;;1.60;;
17790;SDS011;9019;48.132;-1.210;2022-11-15T03:02:01;4.57;;;1.40;;
17790;SDS011;9019;48.132;-1.210;2022-11-15T03:04:33;7.50;;;1.47;;
17790;SDS011;9019;48.132;-1.210;2022-11-15T03:07:05;8.17;;;1.50;;
17790;SDS011;9019;48.132;-1.210;2022-11-15T03:09:35;7.33;;;1.40;;
17790;SDS011;9019;48.132;-1.210;2022-11-15T03:12:03;12.83;;;1.70;;
17790;SDS011;9019;48.132;-1.210;2022-11-15T03:14:34;7.60;;;1.40;;
17790;SDS011;9019;48.132;-1.210;2022-11-15T03:17:05;5.30;;;1.40;;
17790;SDS011;9019;48.132;-1.210;2022-11-15T03:19:40;4.57;;;1.40;;
17790;SDS011;9019;48.132;-1.210;2022-11-15T03:22:08;8.03;;;1.30;;
17790;SDS011;9019;48.132;-1.210;2022-11-15T03:24:37;7.17;;;1.57;;
17790;SDS011;9019;48.132;-1.210;2022-11-15T03:27:05;8.20;;;1.67;;
17790;SDS011;9019;48.132;-1.210;2022-11-15T03:29:33;6.40;;;1.50;;
17790;SDS011;9019;48.132;-1.210;2022-11-15T03:32:05;7.07;;;1.50;;
17790;SDS011;9019;48.132;-1.210;2022-11-15T03:34:34;7.53;;;1.53;;
17790;SDS011;9019;48.132;-1.210;2022-11-15T03:37:04;8.83;;;1.60;;
17790;SDS011;9019;48.132;-1.210;2022-11-15T03:39:31;7.83;;;1.80;;
17790;SDS011;9019;48.132;-1.210;2022-11-15T03:42:02;7.77;;;1.60;;
17790;SDS011;9019;48.132;-1.210;2022-11-15T03:44:34;10.10;;;1.43;;
17790;SDS011;9019;48.132;-1.210;2022-11-15T03:47:06;7.50;;;1.40;;
17790;SDS011;9019;48.132;-1.210;2022-11-15T03:49:34;8.07;;;1.40;;
17790;SDS011;9019;48.132;-1.210;2022-11-15T03:52:02;6.87;;;1.33;;
17790;SDS011;9019;48.132;-1.210;2022-11-15T03:54:29;5.20;;;1.10;;
17790;SDS011;9019;48.132;-1.210;2022-11-15T03:56:57;7.37;;;1.47;;
17790;SDS011;9019;48.132;-1.210;2022-11-15T03:59:24;3.37;;;1.10;;
17790;SDS011;9019;48.132;-1.210;2022-11-15T04:01:51;6.13;;;1.20;;
17790;SDS011;9019;48.132;-1.210;2022-11-15T04:04:20;7.57;;;1.60;;
17790;SDS011;9019;48.132;-1.210;2022-11-15T04:06:47;3.73;;;1.40;;
17790;SDS011;9019;48.132;-1.210;2022-11-15T04:09:14;6.17;;;1.30;;
17790;SDS011;9019;48.132;-1.210;2022-11-15T04:11:41;7.53;;;1.73;;
17790;SDS011;9019;48.132;-1.210;2022-11-15T04:14:09;8.83;;;1.80;;
17790;SDS011;9019;48.132;-1.210;2022-11-15T04:16:36;9.97;;;1.80;;
17790;SDS011;9019;48.132;-1.210;2022-11-15T04:19:03;8.27;;;1.50;;
17790;SDS011;9019;48.132;-1.210;2022-11-15T04:21:49;4.67;;;1.20;;
17790;SDS011;9019;48.132;-1.210;2022-11-15T04:24:34;6.97;;;1.60;;
17790;SDS011;9019;48.132;-1.210;2022-11-15T04:27:01;11.23;;;1.87;;
17790;SDS011;9019;48.132;-1.210;2022-11-15T04:29:28;7.33;;;1.47;;
17790;SDS011;9019;48.132;-1.210;2022-11-15T04:32:01;8.53;;;1.87;;
17790;SDS011;9019;48.132;-1.210;2022-11-15T04:34:29;5.17;;;1.40;;
17790;SDS011;9019;48.132;-1.210;2022-11-15T04:37:00;6.57;;;1.73;;
17790;SDS011;9019;48.132;-1.210;2022-11-15T04:39:41;10.50;;;1.80;;
17790;SDS011;9019;48.132;-1.210;2022-11-15T04:42:09;6.70;;;1.43;;
17790;SDS011;9019;48.132;-1.210;2022-11-15T04:44:36;8.13;;;1.60;;
17790;SDS011;9019;48.132;-1.210;2022-11-15T04:47:03;6.80;;;1.70;;
17790;SDS011;9019;48.132;-1.210;2022-11-15T04:49:31;6.37;;;1.57;;
17790;SDS011;9019;48.132;-1.210;2022-11-15T04:51:58;5.73;;;1.13;;
17790;SDS011;9019;48.132;-1.210;2022-11-15T04:54:27;9.93;;;1.73;;
17790;SDS011;9019;48.132;-1.210;2022-11-15T04:56:54;6.07;;;1.50;;
17790;SDS011;9019;48.132;-1.210;2022-11-15T04:59:21;4.47;;;1.30;;
17790;SDS011;9019;48.132;-1.210;2022-11-15T05:01:48;6.07;;;1.40;;
17790;SDS011;9019;48.132;-1.210;2022-11-15T05:04:15;8.93;;;1.70;;
17790;SDS011;9019;48.132;-1.210;2022-11-15T05:06:45;11.73;;;2.17;;
17790;SDS011;9019;48.132;-1.210;2022-11-15T05:09:12;9.17;;;1.50;;
17790;SDS011;9019;48.132;-1.210;2022-11-15T05:11:41;7.33;;;1.30;;
17790;SDS011;9019;48.132;-1.210;2022-11-15T05:14:08;8.77;;;1.60;;
17790;SDS011;9019;48.132;-1.210;2022-11-15T05:16:35;9.07;;;1.73;;
17790;SDS011;9019;48.132;-1.210;2022-11-15T05:19:03;9.83;;;2.33;;
17790;SDS011;9019;48.132;-1.210;2022-11-15T05:21:30;8.70;;;1.50;;
17790;SDS011;9019;48.132;-1.210;2022-11-15T05:24:00;7.13;;;1.67;;
17790;SDS011;9019;48.132;-1.210;2022-11-15T05:26:28;8.20;;;1.43;;
17790;SDS011;9019;48.132;-1.210;2022-11-15T05:28:58;8.67;;;1.40;;
17790;SDS011;9019;48.132;-1.210;2022-11-15T05:31:26;8.37;;;1.50;;
17790;SDS011;9019;48.132;-1.210;2022-11-15T05:33:53;7.20;;;1.50;;
17790;SDS011;9019;48.132;-1.210;2022-11-15T05:36:22;7.57;;;1.57;;
17790;SDS011;9019;48.132;-1.210;2022-11-15T05:38:52;9.50;;;1.27;;
17790;SDS011;9019;48.132;-1.210;2022-11-15T05:41:20;9.67;;;1.77;;
17790;SDS011;9019;48.132;-1.210;2022-11-15T05:43:48;6.57;;;1.80;;
17790;SDS011;9019;48.132;-1.210;2022-11-15T05:46:18;7.33;;;1.73;;
17790;SDS011;9019;48.132;-1.210;2022-11-15T05:48:46;6.47;;;1.43;;
17790;SDS011;9019;48.132;-1.210;2022-11-15T05:51:14;5.80;;;1.63;;
17790;SDS011;9019;48.132;-1.210;2022-11-15T05:53:43;12.53;;;1.90;;
17790;SDS011;9019;48.132;-1.210;2022-11-15T05:56:11;9.57;;;1.87;;
17790;SDS011;9019;48.132;-1.210;2022-11-15T05:58:39;9.53;;;2.17;;
17790;SDS011;9019;48.132;-1.210;2022-11-15T06:01:06;6.07;;;1.90;;
17790;SDS011;9019;48.132;-1.210;2022-11-15T06:03:35;8.83;;;2.30;;
17790;SDS011;9019;48.132;-1.210;2022-11-15T06:06:02;9.40;;;2.40;;
17790;SDS011;9019;48.132;-1.210;2022-11-15T06:08:29;9.40;;;2.47;;
17790;SDS011;9019;48.132;-1.210;2022-11-15T06:11:02;7.97;;;2.00;;
17790;SDS011;9019;48.132;-1.210;2022-11-15T06:13:29;6.43;;;2.40;;
17790;SDS011;9019;48.132;-1.210;2022-11-15T06:15:57;12.17;;;2.03;;
17790;SDS011;9019;48.132;-1.210;2022-11-15T06:18:24;6.60;;;2.37;;
17790;SDS011;9019;48.132;-1.210;2022-11-15T06:20:53;9.63;;;2.30;;
17790;SDS011;9019;48.132;-1.210;2022-11-15T06:23:20;14.03;;;2.50;;
17790;SDS011;9019;48.132;-1.210;2022-11-15T06:25:47;9.33;;;2.17;;
17790;SDS011;9019;48.132;-1.210;2022-11-15T06:28:14;7.50;;;2.20;;
17790;SDS011;9019;48.132;-1.210;2022-11-15T06:30:41;9.93;;;3.00;;
17790;SDS011;9019;48.132;-1.210;2022-11-15T06:33:09;11.57;;;2.37;;
17790;SDS011;9019;48.132;-1.210;2022-11-15T06:35:36;9.27;;;2.40;;
17790;SDS011;9019;48.132;-1.210;2022-11-15T06:38:06;10.33;;;2.30;;
17790;SDS011;9019;48.132;-1.210;2022-11-15T06:40:33;9.73;;;2.60;;
17790;SDS011;9019;48.132;-1.210;2022-11-15T06:43:01;6.97;;;2.17;;
17790;SDS011;9019;48.132;-1.210;2022-11-15T06:45:28;8.00;;;2.00;;
17790;SDS011;9019;48.132;-1.210;2022-11-15T06:47:56;5.73;;;2.20;;
17790;SDS011;9019;48.132;-1.210;2022-11-15T06:50:23;6.30;;;2.00;;
17790;SDS011;9019;48.132;-1.210;2022-11-15T06:52:51;7.97;;;2.23;;
17790;SDS011;9019;48.132;-1.210;2022-11-15T06:55:20;6.47;;;1.77;;
17790;SDS011;9019;48.132;-1.210;2022-11-15T06:57:48;6.87;;;2.20;;
17790;SDS011;9019;48.132;-1.210;2022-11-15T07:00:16;5.70;;;1.77;;
17790;SDS011;9019;48.132;-1.210;2022-11-15T07:02:43;5.53;;;1.77;;
17790;SDS011;9019;48.132;-1.210;2022-11-15T07:05:10;5.53;;;1.80;;
17790;SDS011;9019;48.132;-1.210;2022-11-15T07:07:38;5.23;;;1.50;;
17790;SDS011;9019;48.132;-1.210;2022-11-15T07:10:06;4.00;;;1.23;;
17790;SDS011;9019;48.132;-1.210;2022-11-15T07:12:36;4.00;;;1.50;;
17790;SDS011;9019;48.132;-1.210;2022-11-15T07:15:05;5.70;;;1.70;;
17790;SDS011;9019;48.132;-1.210;2022-11-15T07:17:33;3.77;;;1.40;;
17790;SDS011;9019;48.132;-1.210;2022-11-15T07:20:00;4.10;;;1.43;;
17790;SDS011;9019;48.132;-1.210;2022-11-15T07:22:27;5.27;;;1.60;;
17790;SDS011;9019;48.132;-1.210;2022-11-15T07:24:54;6.40;;;2.00;;
17790;SDS011;9019;48.132;-1.210;2022-11-15T07:27:22;3.20;;;1.77;;
17790;SDS011;9019;48.132;-1.210;2022-11-15T07:29:50;6.27;;;2.30;;
17790;SDS011;9019;48.132;-1.210;2022-11-15T07:32:17;4.80;;;2.07;;
17790;SDS011;9019;48.132;-1.210;2022-11-15T07:34:45;5.07;;;2.00;;
17790;SDS011;9019;48.132;-1.210;2022-11-15T07:37:12;4.60;;;2.20;;
17790;SDS011;9019;48.132;-1.210;2022-11-15T07:39:39;5.00;;;2.10;;
17790;SDS011;9019;48.132;-1.210;2022-11-15T07:42:12;3.73;;;2.30;;
17790;SDS011;9019;48.132;-1.210;2022-11-15T07:44:58;5.07;;;2.50;;
17790;SDS011;9019;48.132;-1.210;2022-11-15T07:47:27;4.63;;;2.40;;
17790;SDS011;9019;48.132;-1.210;2022-11-15T07:49:55;3.77;;;2.17;;
17790;SDS011;9019;48.132;-1.210;2022-11-15T07:52:22;4.67;;;2.40;;
17790;SDS011;9019;48.132;-1.210;2022-11-15T07:54:49;4.00;;;2.00;;
17790;SDS011;9019;48.132;-1.210;2022-11-15T07:57:17;4.27;;;2.10;;
17790;SDS011;9019;48.132;-1.210;2022-11-15T07:59:44;5.93;;;2.57;;
17790;SDS011;9019;48.132;-1.210;2022-11-15T08:02:12;7.07;;;3.03;;
17790;SDS011;9019;48.132;-1.210;2022-11-15T08:04:41;6.60;;;2.63;;
17790;SDS011;9019;48.132;-1.210;2022-11-15T08:07:09;5.23;;;2.33;;
17790;SDS011;9019;48.132;-1.210;2022-11-15T08:09:36;7.87;;;3.07;;
17790;SDS011;9019;48.132;-1.210;2022-11-15T08:12:03;3.83;;;2.20;;
17790;SDS011;9019;48.132;-1.210;2022-11-15T08:14:30;4.13;;;2.27;;
17790;SDS011;9019;48.132;-1.210;2022-11-15T08:16:58;3.80;;;2.40;;
17790;SDS011;9019;48.132;-1.210;2022-11-15T08:19:26;5.93;;;2.43;;
17790;SDS011;9019;48.132;-1.210;2022-11-15T08:21:54;5.70;;;3.00;;
17790;SDS011;9019;48.132;-1.210;2022-11-15T08:24:21;4.97;;;2.83;;
17790;SDS011;9019;48.132;-1.210;2022-11-15T08:26:48;7.73;;;3.00;;
17790;SDS011;9019;48.132;-1.210;2022-11-15T08:29:15;7.07;;;3.10;;
17790;SDS011;9019;48.132;-1.210;2022-11-15T08:31:45;5.37;;;2.60;;
17790;SDS011;9019;48.132;-1.210;2022-11-15T08:34:15;5.90;;;2.63;;
17790;SDS011;9019;48.132;-1.210;2022-11-15T08:36:44;6.30;;;2.80;;
17790;SDS011;9019;48.132;-1.210;2022-11-15T08:39:11;3.30;;;2.23;;
17790;SDS011;9019;48.132;-1.210;2022-11-15T08:41:40;6.17;;;2.40;;
17790;SDS011;9019;48.132;-1.210;2022-11-15T08:44:07;5.97;;;2.77;;
17790;SDS011;9019;48.132;-1.210;2022-11-15T08:46:35;3.47;;;2.40;;
17790;SDS011;9019;48.132;-1.210;2022-11-15T08:49:03;4.00;;;2.20;;
17790;SDS011;9019;48.132;-1.210;2022-11-15T08:51:30;3.93;;;2.20;;
17790;SDS011;9019;48.132;-1.210;2022-11-15T08:53:59;4.03;;;2.50;;
17790;SDS011;9019;48.132;-1.210;2022-11-15T08:56:27;3.20;;;2.20;;
17790;SDS011;9019;48.132;-1.210;2022-11-15T08:58:54;3.30;;;1.90;;
17790;SDS011;9019;48.132;-1.210;2022-11-15T09:01:22;3.73;;;1.93;;
17790;SDS011;9019;48.132;-1.210;2022-11-15T09:03:52;4.30;;;2.07;;
17790;SDS011;9019;48.132;-1.210;2022-11-15T09:06:21;5.03;;;2.00;;
17790;SDS011;9019;48.132;-1.210;2022-11-15T09:08:49;6.40;;;2.27;;
17790;SDS011;9019;48.132;-1.210;2022-11-15T09:11:18;3.90;;;2.20;;
17790;SDS011;9019;48.132;-1.210;2022-11-15T09:13:46;5.57;;;2.00;;
17790;SDS011;9019;48.132;-1.210;2022-11-15T09:16:14;5.90;;;2.20;;
17790;SDS011;9019;48.132;-1.210;2022-11-15T09:18:41;3.57;;;1.77;;
17790;SDS011;9019;48.132;-1.210;2022-11-15T09:21:08;3.57;;;2.10;;
17790;SDS011;9019;48.132;-1.210;2022-11-15T09:23:36;4.57;;;2.17;;
17790;SDS011;9019;48.132;-1.210;2022-11-15T09:26:04;4.43;;;1.60;;
17790;SDS011;9019;48.132;-1.210;2022-11-15T09:28:33;4.80;;;2.30;;
17790;SDS011;9019;48.132;-1.210;2022-11-15T09:31:01;5.07;;;2.13;;
17790;SDS011;9019;48.132;-1.210;2022-11-15T09:33:28;3.40;;;2.10;;
17790;SDS011;9019;48.132;-1.210;2022-11-15T09:35:59;3.83;;;2.00;;
17790;SDS011;9019;48.132;-1.210;2022-11-15T09:38:26;3.93;;;2.40;;
17790;SDS011;9019;48.132;-1.210;2022-11-15T09:40:57;3.50;;;2.47;;
17790;SDS011;9019;48.132;-1.210;2022-11-15T09:43:28;5.07;;;2.40;;
17790;SDS011;9019;48.132;-1.210;2022-11-15T09:46:00;3.60;;;2.20;;
17790;SDS011;9019;48.132;-1.210;2022-11-15T09:48:41;6.00;;;2.30;;
17790;SDS011;9019;48.132;-1.210;2022-11-15T09:51:13;3.53;;;2.23;;
17790;SDS011;9019;48.132;-1.210;2022-11-15T09:53:43;6.77;;;2.40;;
17790;SDS011;9019;48.132;-1.210;2022-11-15T09:56:14;3.47;;;2.30;;
17790;SDS011;9019;48.132;-1.210;2022-11-15T09:58:44;5.83;;;2.53;;
17790;SDS011;9019;48.132;-1.210;2022-11-15T10:01:16;4.83;;;2.20;;
17790;SDS011;9019;48.132;-1.210;2022-11-15T10:03:47;6.93;;;2.20;;
17790;SDS011;9019;48.132;-1.210;2022-11-15T10:06:16;3.87;;;2.30;;
17790;SDS011;9019;48.132;-1.210;2022-11-15T10:08:49;4.27;;;2.23;;
17790;SDS011;9019;48.132;-1.210;2022-11-15T10:11:18;4.63;;;2.30;;
17790;SDS011;9019;48.132;-1.210;2022-11-15T10:13:46;4.07;;;2.30;;
17790;SDS011;9019;48.132;-1.210;2022-11-15T10:16:24;5.13;;;2.07;;
17790;SDS011;9019;48.132;-1.210;2022-11-15T10:18:54;5.43;;;2.27;;
17790;SDS011;9019;48.132;-1.210;2022-11-15T10:21:28;4.83;;;2.30;;
17790;SDS011;9019;48.132;-1.210;2022-11-15T10:23:56;6.00;;;2.90;;
17790;SDS011;9019;48.132;-1.210;2022-11-15T10:26:24;4.73;;;2.33;;
17790;SDS011;9019;48.132;-1.210;2022-11-15T10:28:51;6.30;;;2.40;;
17790;SDS011;9019;48.132;-1.210;2022-11-15T10:31:24;3.57;;;1.90;;
17790;SDS011;9019;48.132;-1.210;2022-11-15T10:33:51;6.07;;;2.93;;
17790;SDS011;9019;48.132;-1.210;2022-11-15T10:36:23;6.70;;;2.50;;
17790;SDS011;9019;48.132;-1.210;2022-11-15T10:38:55;5.23;;;2.57;;
17790;SDS011;9019;48.132;-1.210;2022-11-15T10:41:28;6.63;;;2.60;;
17790;SDS011;9019;48.132;-1.210;2022-11-15T10:44:07;4.83;;;2.50;;
17790;SDS011;9019;48.132;-1.210;2022-11-15T10:46:37;5.57;;;2.40;;
17790;SDS011;9019;48.132;-1.210;2022-11-15T10:49:14;4.80;;;2.47;;
17790;SDS011;9019;48.132;-1.210;2022-11-15T10:51:43;5.53;;;2.37;;
17790;SDS011;9019;48.132;-1.210;2022-11-15T10:54:11;6.63;;;2.70;;
17790;SDS011;9019;48.132;-1.210;2022-11-15T10:56:39;6.27;;;2.50;;
17790;SDS011;9019;48.132;-1.210;2022-11-15T10:59:13;5.53;;;2.90;;
17790;SDS011;9019;48.132;-1.210;2022-11-15T11:01:47;7.87;;;3.47;;
17790;SDS011;9019;48.132;-1.210;2022-11-15T11:04:14;5.50;;;2.53;;
17790;SDS011;9019;48.132;-1.210;2022-11-15T11:06:47;4.27;;;2.60;;
17790;SDS011;9019;48.132;-1.210;2022-11-15T11:09:21;6.73;;;2.40;;
17790;SDS011;9019;48.132;-1.210;2022-11-15T11:11:50;6.30;;;3.47;;
17790;SDS011;9019;48.132;-1.210;2022-11-15T11:14:19;7.20;;;3.00;;
17790;SDS011;9019;48.132;-1.210;2022-11-15T11:16:49;6.13;;;2.70;;
17790;SDS011;9019;48.132;-1.210;2022-11-15T11:19:21;5.63;;;2.50;;
17790;SDS011;9019;48.132;-1.210;2022-11-15T11:21:56;5.20;;;2.60;;
17790;SDS011;9019;48.132;-1.210;2022-11-15T11:24:27;6.20;;;2.60;;
17790;SDS011;9019;48.132;-1.210;2022-11-15T11:26:59;7.40;;;2.50;;
17790;SDS011;9019;48.132;-1.210;2022-11-15T11:29:35;5.37;;;1.90;;
17790;SDS011;9019;48.132;-1.210;2022-11-15T11:32:09;5.20;;;2.33;;
17790;SDS011;9019;48.132;-1.210;2022-11-15T11:34:44;4.87;;;2.47;;
17790;SDS011;9019;48.132;-1.210;2022-11-15T11:37:19;6.40;;;2.83;;
17790;SDS011;9019;48.132;-1.210;2022-11-15T11:39:51;7.70;;;2.50;;
17790;SDS011;9019;48.132;-1.210;2022-11-15T11:42:24;3.90;;;2.30;;
17790;SDS011;9019;48.132;-1.210;2022-11-15T11:45:02;6.50;;;2.70;;
17790;SDS011;9019;48.132;-1.210;2022-11-15T11:47:35;5.97;;;2.60;;
17790;SDS011;9019;48.132;-1.210;2022-11-15T11:50:10;7.33;;;2.50;;
17790;SDS011;9019;48.132;-1.210;2022-11-15T11:52:38;4.40;;;2.30;;
17790;SDS011;9019;48.132;-1.210;2022-11-15T11:55:12;7.13;;;2.50;;
17790;SDS011;9019;48.132;-1.210;2022-11-15T11:57:44;6.93;;;2.87;;
17790;SDS011;9019;48.132;-1.210;2022-11-15T12:00:15;4.27;;;2.43;;
17790;SDS011;9019;48.132;-1.210;2022-11-15T12:02:47;5.33;;;2.10;;
17790;SDS011;9019;48.132;-1.210;2022-11-15T12:05:18;5.17;;;2.30;;
17790;SDS011;9019;48.132;-1.210;2022-11-15T12:07:47;3.63;;;2.30;;
17790;SDS011;9019;48.132;-1.210;2022-11-15T12:10:19;7.00;;;2.40;;
17790;SDS011;9019;48.132;-1.210;2022-11-15T12:12:50;4.83;;;2.37;;
17790;SDS011;9019;48.132;-1.210;2022-11-15T12:15:20;6.13;;;2.57;;
17790;SDS011;9019;48.132;-1.210;2022-11-15T12:17:50;4.97;;;2.40;;
17790;SDS011;9019;48.132;-1.210;2022-11-15T12:20:18;4.67;;;2.27;;
17790;SDS011;9019;48.132;-1.210;2022-11-15T12:22:47;6.03;;;2.40;;
17790;SDS011;9019;48.132;-1.210;2022-11-15T12:25:16;5.57;;;2.40;;
17790;SDS011;9019;48.132;-1.210;2022-11-15T12:27:46;4.43;;;2.37;;
17790;SDS011;9019;48.132;-1.210;2022-11-15T12:30:14;5.77;;;2.73;;
17790;SDS011;9019;48.132;-1.210;2022-11-15T12:32:50;6.67;;;2.60;;
17790;SDS011;9019;48.132;-1.210;2022-11-15T12:35:22;5.30;;;2.20;;
17790;SDS011;9019;48.132;-1.210;2022-11-15T12:37:50;4.73;;;2.13;;
17790;SDS011;9019;48.132;-1.210;2022-11-15T12:40:30;8.67;;;3.07;;
17790;SDS011;9019;48.132;-1.210;2022-11-15T12:42:58;6.93;;;2.90;;
17790;SDS011;9019;48.132;-1.210;2022-11-15T12:45:26;6.43;;;2.90;;
17790;SDS011;9019;48.132;-1.210;2022-11-15T12:47:57;6.23;;;2.40;;
17790;SDS011;9019;48.132;-1.210;2022-11-15T12:50:52;6.83;;;2.20;;
17790;SDS011;9019;48.132;-1.210;2022-11-15T12:53:26;9.47;;;2.57;;
17790;SDS011;9019;48.132;-1.210;2022-11-15T12:56:09;7.23;;;2.80;;
17790;SDS011;9019;48.132;-1.210;2022-11-15T12:58:45;8.67;;;2.20;;
17790;SDS011;9019;48.132;-1.210;2022-11-15T13:04:14;7.30;;;1.70;;
17790;SDS011;9019;48.132;-1.210;2022-11-15T13:06:49;9.50;;;2.00;;
17790;SDS011;9019;48.132;-1.210;2022-11-15T13:11:59;8.93;;;1.83;;
17790;SDS011;9019;48.132;-1.210;2022-11-15T13:14:42;9.43;;;1.90;;
17790;SDS011;9019;48.132;-1.210;2022-11-15T13:17:18;12.87;;;2.10;;
17790;SDS011;9019;48.132;-1.210;2022-11-15T13:19:53;7.03;;;1.83;;
17790;SDS011;9019;48.132;-1.210;2022-11-15T13:22:22;8.93;;;2.13;;
17790;SDS011;9019;48.132;-1.210;2022-11-15T13:25:14;7.23;;;1.80;;
17790;SDS011;9019;48.132;-1.210;2022-11-15T13:27:44;8.27;;;1.97;;
17790;SDS011;9019;48.132;-1.210;2022-11-15T13:30:13;10.03;;;1.97;;
17790;SDS011;9019;48.132;-1.210;2022-11-15T13:32:41;9.63;;;2.60;;
17790;SDS011;9019;48.132;-1.210;2022-11-15T13:35:09;12.27;;;2.47;;
17790;SDS011;9019;48.132;-1.210;2022-11-15T13:37:36;12.47;;;2.43;;
17790;SDS011;9019;48.132;-1.210;2022-11-15T13:40:17;14.90;;;2.67;;
17790;SDS011;9019;48.132;-1.210;2022-11-15T13:42:45;9.43;;;2.00;;
17790;SDS011;9019;48.132;-1.210;2022-11-15T13:45:13;8.50;;;2.13;;
17790;SDS011;9019;48.132;-1.210;2022-11-15T13:47:41;12.23;;;3.43;;
17790;SDS011;9019;48.132;-1.210;2022-11-15T13:50:11;11.57;;;2.43;;
17790;SDS011;9019;48.132;-1.210;2022-11-15T13:52:39;9.77;;;1.87;;
17790;SDS011;9019;48.132;-1.210;2022-11-15T13:55:09;11.27;;;2.07;;
17790;SDS011;9019;48.132;-1.210;2022-11-15T13:57:40;8.47;;;2.23;;
17790;SDS011;9019;48.132;-1.210;2022-11-15T14:00:24;10.07;;;3.13;;
17790;SDS011;9019;48.132;-1.210;2022-11-15T14:02:51;11.97;;;2.43;;
17790;SDS011;9019;48.132;-1.210;2022-11-15T14:05:20;12.27;;;3.00;;
17790;SDS011;9019;48.132;-1.210;2022-11-15T14:07:52;12.10;;;2.10;;
17790;SDS011;9019;48.132;-1.210;2022-11-15T14:10:24;10.77;;;2.13;;
17790;SDS011;9019;48.132;-1.210;2022-11-15T14:12:52;7.57;;;2.10;;
17790;SDS011;9019;48.132;-1.210;2022-11-15T14:15:24;11.13;;;2.07;;
17790;SDS011;9019;48.132;-1.210;2022-11-15T14:17:52;7.83;;;1.77;;
17790;SDS011;9019;48.132;-1.210;2022-11-15T14:20:24;7.67;;;1.70;;
17790;SDS011;9019;48.132;-1.210;2022-11-15T14:22:53;5.37;;;1.73;;
17790;SDS011;9019;48.132;-1.210;2022-11-15T14:25:21;6.70;;;1.30;;
17790;SDS011;9019;48.132;-1.210;2022-11-15T14:30:37;6.07;;;1.07;;
17790;SDS011;9019;48.132;-1.210;2022-11-15T14:33:14;6.40;;;1.23;;
17790;SDS011;9019;48.132;-1.210;2022-11-15T14:35:45;7.87;;;1.10;;
17790;SDS011;9019;48.132;-1.210;2022-11-15T14:38:12;5.13;;;1.00;;
17790;SDS011;9019;48.132;-1.210;2022-11-15T14:40:40;5.77;;;1.20;;
17790;SDS011;9019;48.132;-1.210;2022-11-15T14:43:08;9.13;;;1.50;;
17790;SDS011;9019;48.132;-1.210;2022-11-15T14:45:36;5.50;;;0.77;;
17790;SDS011;9019;48.132;-1.210;2022-11-15T14:48:04;7.87;;;1.30;;
17790;SDS011;9019;48.132;-1.210;2022-11-15T14:50:32;5.80;;;1.07;;
17790;SDS011;9019;48.132;-1.210;2022-11-15T14:53:01;5.37;;;1.50;;
17790;SDS011;9019;48.132;-1.210;2022-11-15T14:55:31;4.27;;;1.10;;
17790;SDS011;9019;48.132;-1.210;2022-11-15T14:58:00;6.97;;;1.00;;
17790;SDS011;9019;48.132;-1.210;2022-11-15T15:00:29;7.87;;;1.27;;
17790;SDS011;9019;48.132;-1.210;2022-11-15T15:02:57;5.80;;;1.30;;
17790;SDS011;9019;48.132;-1.210;2022-11-15T15:05:25;8.33;;;1.00;;
17790;SDS011;9019;48.132;-1.210;2022-11-15T15:07:52;8.10;;;1.53;;
17790;SDS011;9019;48.132;-1.210;2022-11-15T15:10:21;6.27;;;1.20;;